Point Reyes Station, CA (94956)

4:54 AM PDT on July 04, 2015 (GMT -0700)
Near Pt Reyes National Seashore, Olema,CA | | Change Station
CLOSE
Current Station
Personal Weather Station
Location: Point Reyes Station, CA
Elevation: 66 ft
Nearby Weather Stations

Elev 66 ft 38.04 °N, 122.79 °W | Updated 2 minutes ago

Overcast
Overcast
57.6 °F
Feels Like 57.6 °F
N
0.0
Wind Variable Wind from SSW

Today
High -- | Low -- °F
--% Chance of Precip.
Yesterday
High -- | Low -- °F
Precip. -- in
5:53 AM 8:37 PM
Waning Gibbous, 92% visible
Pressure 29.91 in
Visibility 3.0 miles
Clouds Overcast 400 ft
Dew Point 56 °F
Humidity 96%
Rainfall 0.00 in
Snow Depth Not available.
UV 0 out of 12
Pollen 3.80 out of 12
Air Quality Not available.
Flu Activity Not available.
METAR KO69 041135Z AUTO 30004KT 3SM OVC004 13/13 A2991 RMK AO1

More Conditions Fewer Conditions

Pressure 29.91 in
Visibility 3.0 miles
Clouds Overcast 400 ft
Dew Point 56 °F
Humidity 96%
Rainfall 0.00 in
Snow Depth Not available.
UV 0 out of 12
Pollen 3.80 out of 12
Air Quality Not available.
Flu Activity Not available.
METAR KO69 041135Z AUTO 30004KT 3SM OVC004 13/13 A2991 RMK AO1

More Conditions Fewer Conditions

10-Day Weather Forecast

×

Almanac

Astronomy

Jul. 04, 2015 Rise Set
Actual Time
Civil Twilight
Nautical Twilight
Astronomical Twilight
Moon
Length of Visible Light
Length of Day
Tomorrow will be .
, % of the Moon is Illuminated

Today's Extremes

State Highs State Lows

Community

WunderPhotos

Upload Photos

1,834,939 photos uploaded!

WunderBlogs® & News

Nearby

Air Quality

  Air Quality AQ Index Pollutant
Not available.

Snow Depth

Station Depth Elevation

Earthquake Activity

City Distance Mag. Time & Date
Minimum magnitude displayed is 2.5.

Coastal Water Temperatures

Place Temperature

Stations

Nearby Weather Stations

Station Location Temp. Windchill Dew Point Humidity Wind Precip. Elev Updated Type